createdAt,value
2019-04-06T00:00:18.710Z,921.8
2019-04-06T00:03:13.610Z,923.2
2019-04-06T00:06:08.438Z,923.3
2019-04-06T00:09:03.391Z,923.2
2019-04-06T00:11:58.166Z,923.2
2019-04-06T00:14:53.086Z,923
2019-04-06T00:17:47.930Z,923.2
2019-04-06T00:20:42.844Z,923.2
2019-04-06T00:23:37.656Z,923.2
2019-04-06T00:26:32.513Z,923.1
2019-04-06T00:29:27.374Z,923.1
2019-04-06T00:32:22.280Z,923.2
2019-04-06T00:35:17.149Z,923.2
2019-04-06T00:38:11.946Z,923
2019-04-06T00:41:06.780Z,923.3
2019-04-06T00:44:01.652Z,923
2019-04-06T00:46:56.540Z,923.2
2019-04-06T00:49:51.360Z,923
2019-04-06T00:52:46.316Z,923.2
2019-04-06T00:55:41.080Z,923.2
2019-04-06T00:58:35.950Z,923.1
2019-04-06T01:01:30.798Z,923.1
2019-04-06T01:04:25.756Z,923.1
2019-04-06T01:07:22.945Z,923.2
2019-04-06T01:10:15.394Z,923.2
2019-04-06T01:13:10.146Z,923
2019-04-06T01:16:04.982Z,923.1
2019-04-06T01:19:00.845Z,923.1
2019-04-06T01:21:54.780Z,923.1
2019-04-06T01:24:49.594Z,923
2019-04-06T01:27:44.447Z,923.1
2019-04-06T01:30:39.292Z,923.1
2019-04-06T01:33:34.150Z,922.9
2019-04-06T01:36:28.997Z,923
2019-04-06T01:39:23.843Z,922.9
2019-04-06T01:42:18.752Z,923.1
2019-04-06T01:45:13.532Z,922.9
2019-04-06T01:48:08.367Z,923
2019-04-06T01:51:03.300Z,923
2019-04-06T01:53:58.000Z,923
2019-04-06T01:56:55.851Z,923
2019-04-06T01:59:47.636Z,922.9
2019-04-06T02:02:42.451Z,923
2019-04-06T02:05:37.166Z,923
2019-04-06T02:08:35.050Z,923
2019-04-06T02:11:26.817Z,922.9
2019-04-06T02:14:21.660Z,922.9
2019-04-06T02:17:16.574Z,922.9
2019-04-06T02:20:11.324Z,922.7
2019-04-06T02:23:06.063Z,922.7
2019-04-06T02:26:00.862Z,922.6
2019-04-06T02:28:55.679Z,922.5
2019-04-06T02:31:50.447Z,922.7
2019-04-06T02:34:45.249Z,922.8
2019-04-06T02:37:40.225Z,922.8
2019-04-06T02:40:34.821Z,922.7
2019-04-06T02:43:29.849Z,922.9
2019-04-06T02:46:24.427Z,922.5
2019-04-06T02:49:19.464Z,922.8
2019-04-06T02:52:14.027Z,922.8
2019-04-06T02:55:08.810Z,922.8
2019-04-06T02:58:03.599Z,922.7
2019-04-06T03:00:58.325Z,922.7
2019-04-06T03:03:53.516Z,922.8
2019-04-06T03:06:47.953Z,922.6
2019-04-06T03:09:42.747Z,922.7
2019-04-06T03:12:37.428Z,922.7
2019-04-06T03:15:32.313Z,922.7
2019-04-06T03:18:26.921Z,922.7
2019-04-06T03:21:21.755Z,922.7
2019-04-06T03:24:16.511Z,922.8
2019-04-06T03:27:11.263Z,922.8
2019-04-06T03:30:06.262Z,922.8
2019-04-06T03:33:01.049Z,922.7
2019-04-06T03:35:56.210Z,922.7
2019-04-06T03:38:50.589Z,922.7
2019-04-06T03:41:46.321Z,922.6
2019-04-06T03:44:40.032Z,922.8
2019-04-06T03:47:34.745Z,922.8
2019-04-06T03:50:29.515Z,922.8
2019-04-06T03:53:24.156Z,922.6
2019-04-06T03:56:19.135Z,921.9
2019-04-06T03:59:13.710Z,922.9
2019-04-06T04:02:08.785Z,922.7
2019-04-06T04:05:03.180Z,922.8
2019-04-06T04:07:58.079Z,922.7
2019-04-06T04:10:52.713Z,922.7
2019-04-06T04:13:47.440Z,922.7
2019-04-06T04:16:42.207Z,922.8
2019-04-06T04:19:36.927Z,922.8
2019-04-06T04:25:26.365Z,922.9
2019-04-06T04:28:21.177Z,922.8
2019-04-06T04:31:15.884Z,922.9
2019-04-06T04:34:10.747Z,922.8
2019-04-06T04:37:05.419Z,922.8
2019-04-06T04:40:00.198Z,922.9
2019-04-06T04:42:54.876Z,922.7
2019-04-06T04:45:49.657Z,922.9
2019-04-06T04:48:44.405Z,922.7
2019-04-06T04:51:39.195Z,923
2019-04-06T04:54:33.879Z,922.9
2019-04-06T04:57:45.891Z,923
2019-04-06T05:00:23.518Z,923
2019-04-06T05:03:18.199Z,923
2019-04-06T05:06:12.761Z,922.8
2019-04-06T05:09:07.475Z,923
2019-04-06T05:12:02.231Z,923.1
2019-04-06T05:14:57.045Z,922.9
2019-04-06T05:17:51.837Z,923.1
2019-04-06T05:20:46.565Z,923
2019-04-06T05:23:41.178Z,923
2019-04-06T05:26:38.738Z,923
2019-04-06T05:29:32.973Z,923
2019-04-06T05:32:25.269Z,923
2019-04-06T05:35:20.049Z,923
2019-04-06T05:38:14.761Z,923.1
2019-04-06T05:41:09.565Z,923.1
2019-04-06T05:44:04.360Z,923.2
2019-04-06T05:46:59.279Z,923.2
2019-04-06T05:49:53.865Z,923.3
2019-04-06T05:52:48.818Z,923.2
2019-04-06T05:55:43.691Z,923.2
2019-04-06T05:58:44.837Z,923.4
2019-04-06T06:01:33.172Z,923.2
2019-04-06T06:04:28.361Z,923.3
2019-04-06T06:07:23.145Z,923.3
2019-04-06T06:10:17.949Z,923.3
2019-04-06T06:13:13.001Z,923.4
2019-04-06T06:16:08.071Z,923.3
2019-04-06T06:19:03.265Z,923.4
2019-04-06T06:21:58.437Z,923.4
2019-04-06T06:24:53.585Z,923.2
2019-04-06T06:27:48.808Z,923.2
2019-04-06T06:30:44.288Z,923.3
2019-04-06T06:33:39.518Z,923.2
2019-04-06T06:36:34.919Z,923.4
2019-04-06T06:39:30.137Z,923.3
2019-04-06T06:42:25.526Z,923.3
2019-04-06T06:45:21.005Z,923.4
2019-04-06T06:48:16.649Z,923.4
2019-04-06T06:51:12.173Z,923.4
2019-04-06T06:54:08.671Z,923.3
2019-04-06T06:57:03.389Z,923.3
2019-04-06T06:59:58.975Z,923.3
2019-04-06T07:02:54.625Z,923.3
2019-04-06T07:05:50.091Z,923.4
2019-04-06T07:08:45.799Z,923.2
2019-04-06T07:11:41.456Z,923.3
2019-04-06T07:14:37.025Z,923.4
2019-04-06T07:17:32.737Z,923.3
2019-04-06T07:20:28.620Z,923.2
2019-04-06T07:23:24.328Z,923.2
2019-04-06T07:26:20.286Z,923.3
2019-04-06T07:29:15.856Z,923.1
2019-04-06T07:32:11.833Z,923.3
2019-04-06T07:35:07.556Z,923.2
2019-04-06T07:38:03.395Z,923.3
2019-04-06T07:40:59.295Z,923.2
2019-04-06T07:43:55.208Z,923.3
2019-04-06T07:49:47.627Z,923.2
2019-04-06T07:52:42.723Z,923.1
2019-04-06T07:55:38.569Z,923.2
2019-04-06T07:58:34.439Z,923.1
2019-04-06T08:01:30.456Z,923.2
2019-04-06T08:04:26.193Z,922.1
2019-04-06T08:07:22.546Z,923.2
2019-04-06T08:10:17.628Z,923
2019-04-06T08:13:13.401Z,923.1
2019-04-06T08:16:09.336Z,923.2
2019-04-06T08:19:04.881Z,923
2019-04-06T08:22:01.112Z,923
2019-04-06T08:24:56.392Z,923.1
2019-04-06T08:27:52.382Z,923
2019-04-06T08:30:47.959Z,923.2
2019-04-06T08:33:43.526Z,923
2019-04-06T08:36:39.444Z,922.9
2019-04-06T08:39:35.079Z,922.9
2019-04-06T08:42:30.795Z,922.8
2019-04-06T08:45:26.170Z,922.9
2019-04-06T08:48:21.798Z,922.8
2019-04-06T08:51:17.426Z,922.8
2019-04-06T08:54:13.186Z,923
2019-04-06T08:57:08.612Z,922.8
2019-04-06T09:00:04.186Z,922.7
2019-04-06T09:02:59.986Z,922.9
2019-04-06T09:05:55.297Z,922.7
2019-04-06T09:11:46.379Z,922.9
2019-04-06T09:14:41.811Z,922.9
2019-04-06T09:17:37.526Z,922.8
2019-04-06T09:20:32.851Z,922.8
2019-04-06T09:23:28.653Z,922.7
2019-04-06T09:26:23.934Z,922.8
2019-04-06T09:29:25.422Z,922.8
2019-04-06T09:32:15.012Z,922.5
2019-04-06T09:35:10.498Z,922.6
2019-04-06T09:38:05.874Z,922.5
2019-04-06T09:41:01.907Z,922.5
2019-04-06T09:43:56.988Z,922.4
2019-04-06T09:46:52.256Z,922.3
2019-04-06T09:49:48.122Z,922.4
2019-04-06T09:52:43.486Z,922.3
2019-04-06T09:55:38.924Z,922.4
2019-04-06T09:58:34.486Z,922.2
2019-04-06T10:01:39.817Z,922.3
2019-04-06T10:04:25.300Z,922.2
2019-04-06T10:07:20.660Z,922.1
2019-04-06T10:10:16.061Z,922.2
2019-04-06T10:13:11.678Z,922
2019-04-06T10:16:06.968Z,922.1
2019-04-06T10:19:06.278Z,921.9
2019-04-06T10:21:57.865Z,921.8
2019-04-06T10:24:53.535Z,921.8
2019-04-06T10:27:49.239Z,921.7
2019-04-06T10:30:44.400Z,921.8
2019-04-06T10:33:39.877Z,922
2019-04-06T10:36:35.311Z,921.8
2019-04-06T10:39:30.760Z,921.7
2019-04-06T10:42:29.924Z,921.6
2019-04-06T10:45:21.797Z,921.8
2019-04-06T10:48:17.475Z,921.8
2019-04-06T10:51:13.005Z,921.6
2019-04-06T10:54:08.554Z,921.6
2019-04-06T10:57:03.791Z,921.5
2019-04-06T11:00:04.112Z,921.5
2019-04-06T11:02:54.780Z,921.5
2019-04-06T11:05:50.283Z,921.3
2019-04-06T11:08:45.950Z,921.3
2019-04-06T11:38:00.348Z,921.1
2019-04-06T11:43:50.901Z,920.3
2019-04-06T11:46:46.437Z,921.1
2019-04-06T12:10:10.042Z,920.6
2019-04-06T12:36:29.652Z,921.1
2019-04-06T12:39:25.580Z,921
2019-04-06T12:42:20.100Z,921
2019-04-06T12:45:15.366Z,921
2019-04-06T12:48:12.039Z,921
2019-04-06T12:51:06.275Z,921
2019-04-06T12:54:02.191Z,921
2019-04-06T12:59:52.609Z,920.9
2019-04-06T13:05:43.702Z,921
2019-04-06T13:08:38.527Z,920.9
2019-04-06T13:11:34.191Z,920.8
2019-04-06T13:14:31.999Z,921
2019-04-06T13:17:24.867Z,920.9
2019-04-06T13:20:23.428Z,921
2019-04-06T13:23:15.655Z,920.8
2019-04-06T13:26:10.825Z,920.8
2019-04-06T13:29:06.417Z,920.8
2019-04-06T13:32:02.067Z,920.8
2019-04-06T13:34:57.143Z,920.8
2019-04-06T13:37:52.697Z,920.8
2019-04-06T13:40:48.221Z,920.9
2019-04-06T13:43:43.529Z,920.8
2019-04-06T13:46:38.824Z,920.8
2019-04-06T13:49:34.397Z,920.8
2019-04-06T13:52:29.691Z,920.7
2019-04-06T13:55:24.826Z,920.8
2019-04-06T13:58:21.036Z,920.9
2019-04-06T14:01:18.812Z,921
2019-04-06T14:04:11.344Z,920.9
2019-04-06T14:07:07.009Z,920.7
2019-04-06T14:10:02.488Z,920.8
2019-04-06T14:12:58.256Z,920.7
2019-04-06T14:15:53.071Z,920.8
2019-04-06T14:18:48.503Z,920.7
2019-04-06T14:21:44.080Z,920.7
2019-04-06T14:24:39.299Z,920.7
2019-04-06T14:27:35.072Z,920.8
2019-04-06T14:30:30.549Z,919.5
2019-04-06T14:33:26.383Z,920.8
2019-04-06T14:36:21.053Z,920.8
2019-04-06T14:39:16.758Z,920.8
2019-04-06T14:42:11.715Z,920.9
2019-04-06T14:45:07.328Z,920.7
2019-04-06T14:48:02.980Z,920.7
2019-04-06T14:50:58.598Z,920.8
2019-04-06T14:53:53.806Z,920.8
2019-04-06T14:56:49.427Z,920.8
2019-04-06T14:59:43.954Z,920.8
2019-04-06T15:02:39.440Z,920.7
2019-04-06T15:05:34.717Z,920.6
2019-04-06T15:08:30.095Z,920.6
2019-04-06T15:11:25.454Z,920.5
2019-04-06T15:14:21.058Z,920.6
2019-04-06T15:17:16.223Z,920.7
2019-04-06T15:20:11.908Z,920.5
2019-04-06T15:23:06.952Z,920.5
2019-04-06T15:26:02.770Z,920.7
2019-04-06T15:29:01.699Z,920.6
2019-04-06T15:31:53.194Z,920.7
2019-04-06T15:34:48.548Z,920.7
2019-04-06T15:37:43.786Z,920.7
2019-04-06T15:40:42.300Z,920.8
2019-04-06T15:43:34.888Z,920.7
2019-04-06T15:46:32.054Z,920.8
2019-04-06T15:49:25.481Z,920.7
2019-04-06T15:52:20.858Z,920.8
2019-04-06T15:55:15.834Z,920.8
2019-04-06T15:58:11.135Z,920.8
2019-04-06T16:01:06.274Z,920.6
2019-04-06T16:04:01.851Z,920.7
2019-04-06T16:06:57.282Z,920.8
2019-04-06T16:09:51.987Z,920.7
2019-04-06T16:12:47.478Z,920.8
2019-04-06T16:15:42.794Z,920.8
2019-04-06T16:18:37.920Z,920.7
2019-04-06T16:21:33.791Z,920.7
2019-04-06T16:24:28.832Z,920.7
2019-04-06T16:27:23.979Z,920.8
2019-04-06T16:30:19.569Z,920.8
2019-04-06T16:33:14.841Z,920.8
2019-04-06T16:36:10.665Z,920.8
2019-04-06T16:39:05.992Z,920.7
2019-04-06T16:42:00.830Z,920.8
2019-04-06T16:44:56.101Z,920.8
2019-04-06T16:47:51.384Z,920.6
2019-04-06T16:50:46.320Z,920.7
2019-04-06T16:53:41.539Z,920.8
2019-04-06T16:56:37.211Z,920.8
2019-04-06T16:59:32.704Z,920.8
2019-04-06T17:02:28.159Z,920.7
2019-04-06T17:05:22.815Z,920.7
2019-04-06T17:08:18.063Z,920.7
2019-04-06T17:11:14.115Z,920.8
2019-04-06T17:14:08.769Z,920.6
2019-04-06T17:17:04.658Z,920.7
2019-04-06T17:19:59.900Z,920.7
2019-04-06T17:22:55.115Z,920.6
2019-04-06T17:25:49.921Z,920.7
2019-04-06T17:28:45.664Z,920.4
2019-04-06T17:31:41.292Z,920.6
2019-04-06T17:34:36.141Z,920.8
2019-04-06T17:37:31.437Z,920.8
2019-04-06T17:43:21.675Z,920.8
2019-04-06T17:46:17.360Z,920.8
2019-04-06T17:49:12.525Z,920.9
2019-04-06T17:52:07.804Z,921
2019-04-06T17:55:02.767Z,920.9
2019-04-06T17:57:58.056Z,921
2019-04-06T18:00:53.379Z,920.9
2019-04-06T18:03:48.913Z,921
2019-04-06T18:06:44.176Z,921
2019-04-06T18:09:39.491Z,921.1
2019-04-06T18:12:35.101Z,921.1
2019-04-06T18:15:30.050Z,921.1
2019-04-06T18:18:25.933Z,921.1
2019-04-06T18:21:20.671Z,921.1
2019-04-06T18:24:17.103Z,921
2019-04-06T18:27:12.218Z,921.2
2019-04-06T18:30:06.970Z,920.9
2019-04-06T18:33:04.221Z,921.1
2019-04-06T18:35:57.537Z,921.1
2019-04-06T18:38:52.640Z,921.3
2019-04-06T18:41:48.148Z,921.2
2019-04-06T18:44:42.860Z,921
2019-04-06T18:47:39.147Z,921.1
2019-04-06T18:50:39.435Z,921.1
2019-04-06T18:53:28.901Z,921.1
2019-04-06T18:56:24.227Z,921.1
2019-04-06T18:59:19.622Z,921.1
2019-04-06T19:02:15.361Z,921.1
2019-04-06T19:05:10.302Z,921.1
2019-04-06T19:08:05.418Z,921.1
2019-04-06T19:11:00.342Z,921.1
2019-04-06T19:13:55.822Z,921
2019-04-06T19:16:51.408Z,921
2019-04-06T19:19:46.189Z,921.2
2019-04-06T19:22:41.334Z,921.3
2019-04-06T19:25:36.736Z,921.2
2019-04-06T19:28:32.406Z,921.2
2019-04-06T19:31:27.281Z,921.1
2019-04-06T19:34:22.275Z,921
2019-04-06T19:37:17.330Z,921.2
2019-04-06T19:40:12.660Z,921.2
2019-04-06T19:43:07.950Z,921.2
2019-04-06T19:46:04.376Z,921.3
2019-04-06T19:48:58.682Z,921.2
2019-04-06T19:51:53.357Z,921.3
2019-04-06T19:54:48.299Z,921.2
2019-04-06T19:57:43.909Z,921.2
2019-04-06T20:00:38.204Z,921.1
2019-04-06T20:03:40.251Z,921
2019-04-06T20:06:28.423Z,921.2
2019-04-06T20:09:23.593Z,921.3
2019-04-06T20:12:18.730Z,921.3
2019-04-06T20:15:14.431Z,921.3
2019-04-06T20:18:09.491Z,921.3
2019-04-06T20:21:04.171Z,921.1
2019-04-06T20:23:59.519Z,919.8
2019-04-06T20:26:54.735Z,921.2
2019-04-06T20:29:50.119Z,921.1
2019-04-06T20:32:45.041Z,921.2
2019-04-06T20:35:41.257Z,921.1
2019-04-06T20:38:34.811Z,920.9
2019-04-06T20:41:30.721Z,921
2019-04-06T20:44:25.598Z,921.1
2019-04-06T20:47:21.600Z,921
2019-04-06T20:50:15.227Z,921
2019-04-06T20:53:10.597Z,921
2019-04-06T20:56:05.711Z,921.1
2019-04-06T20:59:01.710Z,921
2019-04-06T21:01:55.504Z,921
2019-04-06T21:04:51.004Z,920.9
2019-04-06T21:07:45.677Z,920.9
2019-04-06T21:10:41.978Z,920.8
2019-04-06T21:13:37.040Z,921
2019-04-06T21:16:31.717Z,920.8
2019-04-06T21:19:27.310Z,919.5
2019-04-06T21:22:21.099Z,921
2019-04-06T21:25:16.501Z,921
2019-04-06T21:28:11.219Z,920.9
2019-04-06T21:31:06.183Z,921
2019-04-06T21:34:17.130Z,919.5
2019-04-06T21:36:56.683Z,921
2019-04-06T21:39:51.155Z,921
2019-04-06T21:42:46.664Z,921
2019-04-06T21:45:42.266Z,919.9
2019-04-06T21:48:36.934Z,921
2019-04-06T21:51:32.741Z,920.8
2019-04-06T21:54:26.387Z,920.9
2019-04-06T21:57:22.002Z,920.9
2019-04-06T22:00:17.005Z,920.7
2019-04-06T22:03:12.421Z,920.9
2019-04-06T22:06:07.067Z,920.9
2019-04-06T22:09:02.953Z,920.9
2019-04-06T22:11:56.558Z,920.9
2019-04-06T22:14:51.924Z,920.9
2019-04-06T22:17:46.990Z,920.9
2019-04-06T22:20:42.322Z,920.8
2019-04-06T22:23:47.619Z,921
2019-04-06T22:26:31.491Z,920.8
2019-04-06T22:29:26.489Z,921
2019-04-06T22:32:21.622Z,920.9
2019-04-06T22:35:16.654Z,921
2019-04-06T22:38:12.266Z,920.9
2019-04-06T22:41:06.942Z,920.8
2019-04-06T22:44:02.141Z,920.9
2019-04-06T22:46:57.098Z,920.8
2019-04-06T22:49:51.716Z,920.7
2019-04-06T22:52:47.695Z,920.8
2019-04-06T22:55:43.238Z,920.9
2019-04-06T22:58:37.159Z,920.7
2019-04-06T23:01:32.044Z,921
2019-04-06T23:04:26.642Z,920.8
2019-04-06T23:07:22.094Z,920.8
2019-04-06T23:10:17.068Z,920.8
2019-04-06T23:13:12.470Z,920.7
2019-04-06T23:16:07.123Z,920.8
2019-04-06T23:19:02.202Z,920.9
2019-04-06T23:21:58.469Z,921
2019-04-06T23:24:52.774Z,921
2019-04-06T23:27:47.137Z,919.5
2019-04-06T23:30:42.691Z,921
2019-04-06T23:33:37.086Z,920.8
2019-04-06T23:36:31.541Z,921
2019-04-06T23:39:27.521Z,921
2019-04-06T23:42:22.008Z,920.9
2019-04-06T23:45:16.460Z,921
2019-04-06T23:48:12.172Z,921
2019-04-06T23:51:08.152Z,920.9
2019-04-06T23:54:02.079Z,920.9
2019-04-06T23:56:57.102Z,921
2019-04-06T23:59:52.954Z,920.9
